Time;durP1;ratioP1;P1;durP2;ratioP2;P2;SDS_P1;SDS_P2;PMS_P1;PMS_P2;Temp;Humidity;BMP_temperature;BMP_pressure;BME280_temperature;BME280_humidity;BME280_pressure;Samples;Min_cycle;Max_cycle;Signal;HPM_P1;HPM_P2
2023/08/21 00:00:54;;;;;;;;;;;;;;;24.86;41.16;99636.19;5031741;28;840;-57
2023/08/21 00:03:21;;;;;;;;;;;;;;;24.85;41.04;99645.91;5031665;28;816;-57
2023/08/21 00:05:48;;;;;;;;;;;;;;;24.83;40.94;99652.06;5032091;28;812;-57
2023/08/21 00:08:14;;;;;;;;;;;;;;;24.86;40.88;99636.94;5031740;28;820;-57
2023/08/21 00:10:42;;;;;;;;;;;;;;;24.90;40.58;99633.88;5031737;28;832;-57
2023/08/21 00:13:08;;;;;;;;;;;;;;;25.04;40.18;99634.97;5031737;28;899;-57
2023/08/21 00:15:37;;;;;;;;;;;;;;;25.17;39.70;99643.75;5031722;28;939;-58
2023/08/21 00:18:03;;;;;;;;;;;;;;;25.30;39.14;99640.50;5031599;28;1902;-57
2023/08/21 00:20:30;;;;;;;;;;;;;;;25.30;39.19;99646.16;5031599;28;879;-57
2023/08/21 00:22:57;;;;;;;;;;;;;;;25.34;38.89;99643.84;5013971;28;1216;-57
2023/08/21 00:25:24;;;;;;;;;;;;;;;25.36;38.89;99638.47;5031518;28;824;-57
2023/08/21 00:27:51;;;;;;;;;;;;;;;25.37;38.73;99639.22;5031591;28;809;-57
2023/08/21 00:30:17;;;;;;;;;;;;;;;25.43;38.50;99640.81;5031362;28;852;-57
2023/08/21 00:32:44;;;;;;;;;;;;;;;25.45;38.53;99640.28;5031933;28;820;-56
2023/08/21 00:35:10;;;;;;;;;;;;;;;25.55;38.39;99638.00;5031658;28;832;-57
2023/08/21 00:37:37;;;;;;;;;;;;;;;25.61;38.00;99628.25;5014045;28;1943;-57
2023/08/21 00:40:04;;;;;;;;;;;;;;;25.66;37.88;99629.53;5031674;28;974;-57
2023/08/21 00:42:30;;;;;;;;;;;;;;;25.60;37.83;99629.50;5033889;28;898;-57
2023/08/21 00:44:57;;;;;;;;;;;;;;;25.68;37.60;99641.13;5035014;28;1417;-57
2023/08/21 00:47:24;;;;;;;;;;;;;;;25.65;37.85;99637.25;5035831;28;856;-57
2023/08/21 00:49:51;;;;;;;;;;;;;;;25.46;38.34;99634.13;5035389;28;826;-57
2023/08/21 00:52:18;;;;;;;;;;;;;;;25.29;38.39;99636.13;5035164;28;876;-57
2023/08/21 00:54:44;;;;;;;;;;;;;;;25.33;38.20;99639.50;5035086;28;826;-57
2023/08/21 00:57:12;;;;;;;;;;;;;;;25.32;38.15;99634.34;5034930;28;1918;-57
2023/08/21 00:59:39;;;;;;;;;;;;;;;25.25;38.35;99639.19;5017231;28;1211;-57
2023/08/21 01:02:05;;;;;;;;;;;;;;;25.24;38.23;99642.53;5034921;28;1357;-57
2023/08/21 01:04:32;;;;;;;;;;;;;;;25.26;38.13;99643.59;5034771;28;899;-56
2023/08/21 01:06:59;;;;;;;;;;;;;;;25.23;38.11;99638.16;5034916;28;871;-57
2023/08/21 01:09:31;;;;;;;;;;;;;;;25.22;38.01;99640.22;5034755;28;821;-57
2023/08/21 01:12:15;;;;;;;;;;;;;;;25.29;37.98;99641.03;5034872;28;832;-57
2023/08/21 01:15:02;;;;;;;;;;;;;;;25.34;37.85;99638.19;5034842;28;1297;-57
2023/08/21 01:17:36;;;;;;;;;;;;;;;25.38;37.69;99638.72;5034520;28;1949;-57
2023/08/21 01:20:04;;;;;;;;;;;;;;;25.37;37.75;99633.56;5034899;28;892;-57
2023/08/21 01:22:37;;;;;;;;;;;;;;;25.33;37.99;99636.66;5034665;28;918;-57
2023/08/21 01:25:08;;;;;;;;;;;;;;;25.34;37.72;99634.59;5016840;28;1288;-57
2023/08/21 01:27:35;;;;;;;;;;;;;;;25.36;37.60;99629.22;5034357;28;820;-58
2023/08/21 01:30:03;;;;;;;;;;;;;;;25.35;37.66;99633.31;5034510;28;900;-57
2023/08/21 01:32:35;;;;;;;;;;;;;;;25.40;37.30;99635.41;5034419;28;820;-57
2023/08/21 01:35:02;;;;;;;;;;;;;;;25.51;37.23;99635.41;5034585;28;915;-57
2023/08/21 01:37:30;;;;;;;;;;;;;;;25.50;37.27;99642.38;5034463;28;1953;-57
2023/08/21 01:39:59;;;;;;;;;;;;;;;25.54;36.95;99637.25;5034287;28;973;-57
2023/08/21 01:42:26;;;;;;;;;;;;;;;25.57;37.18;99636.22;5034205;28;910;-57
2023/08/21 01:44:52;;;;;;;;;;;;;;;25.57;36.84;99632.63;5034000;28;1229;-57
2023/08/21 01:47:19;;;;;;;;;;;;;;;25.60;36.72;99631.56;5034145;28;871;-57
2023/08/21 01:49:45;;;;;;;;;;;;;;;25.61;36.85;99635.97;5016383;28;870;-57
2023/08/21 01:52:13;;;;;;;;;;;;;;;25.62;36.81;99640.31;5034121;28;800;-57
2023/08/21 01:54:42;;;;;;;;;;;;;;;25.65;36.80;99633.66;5033391;28;848;-58
2023/08/21 01:57:08;;;;;;;;;;;;;;;25.65;36.90;99628.00;5033799;28;1918;-57
2023/08/21 01:59:35;;;;;;;;;;;;;;;25.67;36.96;99637.53;5033985;28;812;-57
2023/08/21 02:02:01;;;;;;;;;;;;;;;25.66;36.77;99635.19;5033875;28;816;-57
2023/08/21 02:04:28;;;;;;;;;;;;;;;25.68;36.72;99635.44;5033835;28;926;-57
2023/08/21 02:06:54;;;;;;;;;;;;;;;25.76;36.67;99633.66;5033732;28;892;-57
2023/08/21 02:09:21;;;;;;;;;;;;;;;25.81;36.53;99635.72;5033771;28;816;-57
2023/08/21 02:11:47;;;;;;;;;;;;;;;25.86;36.50;99634.19;5033625;28;848;-57
2023/08/21 02:14:14;;;;;;;;;;;;;;;25.87;36.47;99638.56;5033702;28;899;-57
2023/08/21 02:16:40;;;;;;;;;;;;;;;25.87;36.58;99633.69;5033718;28;1953;-57
2023/08/21 02:19:07;;;;;;;;;;;;;;;25.88;36.45;99640.09;5033722;28;884;-57
2023/08/21 02:21:36;;;;;;;;;;;;;;;25.90;36.27;99642.47;5033967;28;891;-57
2023/08/21 02:24:02;;;;;;;;;;;;;;;25.99;36.22;99639.38;5033349;28;868;-57
2023/08/21 02:26:29;;;;;;;;;;;;;;;26.07;35.95;99638.38;5033407;28;899;-57
2023/08/21 02:28:59;;;;;;;;;;;;;;;26.05;36.08;99643.78;5033492;28;933;-57
2023/08/21 02:31:24;;;;;;;;;;;;;;;26.00;36.32;99643.75;5033251;28;873;-56
2023/08/21 02:33:51;;;;;;;;;;;;;;;25.96;36.37;99644.00;5033298;28;993;-57
2023/08/21 02:36:18;;;;;;;;;;;;;;;25.90;36.52;99643.22;5033166;28;1973;-57
2023/08/21 02:38:44;;;;;;;;;;;;;;;25.84;36.52;99650.94;5033155;28;895;-57
2023/08/21 02:41:11;;;;;;;;;;;;;;;25.85;36.62;99647.56;5033090;28;904;-58
2023/08/21 02:43:36;;;;;;;;;;;;;;;25.81;36.69;99647.03;5033094;28;1248;-57
2023/08/21 02:46:03;;;;;;;;;;;;;;;25.81;36.69;99644.22;5033317;28;1205;-57
2023/08/21 02:48:29;;;;;;;;;;;;;;;25.81;36.83;99644.22;5015211;28;1196;-57
2023/08/21 02:50:56;;;;;;;;;;;;;;;25.83;36.69;99647.31;5033262;28;876;-57
2023/08/21 02:53:23;;;;;;;;;;;;;;;25.87;36.64;99650.66;5032804;28;840;-56
2023/08/21 02:55:50;;;;;;;;;;;;;;;25.89;36.55;99647.34;5032917;28;840;-57
2023/08/21 02:58:16;;;;;;;;;;;;;;;25.86;36.76;99651.16;5032535;28;1910;-56
2023/08/21 03:00:44;;;;;;;;;;;;;;;25.84;36.70;99642.44;5032748;28;840;-57
2023/08/21 03:03:11;;;;;;;;;;;;;;;25.89;36.63;99643.75;5032665;28;930;-57
2023/08/21 03:05:38;;;;;;;;;;;;;;;25.86;36.79;99648.34;5032510;28;834;-57
2023/08/21 03:08:05;;;;;;;;;;;;;;;25.86;36.63;99643.47;5032600;28;828;-56
2023/08/21 03:10:33;;;;;;;;;;;;;;;25.83;36.92;99643.72;5032661;28;973;-57
2023/08/21 03:13:00;;;;;;;;;;;;;;;25.85;36.80;99641.16;5015121;28;2204;-57
2023/08/21 03:15:26;;;;;;;;;;;;;;;25.93;36.84;99645.06;5032736;28;871;-57
2023/08/21 03:17:53;;;;;;;;;;;;;;;25.89;37.02;99649.41;5032338;28;1948;-57
2023/08/21 03:20:19;;;;;;;;;;;;;;;25.90;37.07;99645.28;5032346;28;824;-57
2023/08/21 03:22:46;;;;;;;;;;;;;;;25.89;36.97;99641.69;5032401;28;829;-57
2023/08/21 03:25:13;;;;;;;;;;;;;;;25.85;37.02;99650.41;5032140;28;822;-57
2023/08/21 03:27:44;;;;;;;;;;;;;;;25.81;37.11;99646.28;5032213;28;1022;-56
2023/08/21 03:30:10;;;;;;;;;;;;;;;25.83;37.18;99652.19;5032790;28;876;-57
2023/08/21 03:32:37;;;;;;;;;;;;;;;25.84;37.23;99645.28;5032391;28;868;-56
2023/08/21 03:35:04;;;;;;;;;;;;;;;25.83;37.25;99646.53;5032390;28;843;-57
2023/08/21 03:37:30;;;;;;;;;;;;;;;25.82;37.37;99648.59;5032187;28;1878;-57
2023/08/21 03:39:57;;;;;;;;;;;;;;;25.80;37.56;99659.66;5014554;28;1266;-57
2023/08/21 03:42:24;;;;;;;;;;;;;;;25.81;37.54;99651.94;5032070;28;1135;-57
2023/08/21 03:44:51;;;;;;;;;;;;;;;25.83;37.45;99649.38;5031746;28;1372;-57
2023/08/21 03:47:18;;;;;;;;;;;;;;;25.84;37.59;99656.59;5031961;28;872;-57
2023/08/21 03:49:48;;;;;;;;;;;;;;;25.83;37.63;99655.81;5032516;28;781;-57
2023/08/21 03:52:15;;;;;;;;;;;;;;;25.85;37.47;99653.22;5031973;28;832;-57
2023/08/21 03:54:42;;;;;;;;;;;;;;;25.85;37.44;99655.28;5032000;28;844;-57
2023/08/21 03:57:09;;;;;;;;;;;;;;;25.85;37.61;99650.41;5031678;28;1979;-57
2023/08/21 03:59:35;;;;;;;;;;;;;;;25.86;37.74;99648.34;5031899;28;841;-57
2023/08/21 04:02:01;;;;;;;;;;;;;;;25.92;37.70;99654.81;5032018;28;867;-57
2023/08/21 04:04:28;;;;;;;;;;;;;;;26.04;37.39;99644.28;5032183;28;808;-56
2023/08/21 04:06:55;;;;;;;;;;;;;;;26.10;37.26;99650.72;5032222;28;860;-57
2023/08/21 04:09:21;;;;;;;;;;;;;;;26.15;37.27;99657.66;5032274;28;847;-57
2023/08/21 04:11:48;;;;;;;;;;;;;;;26.19;37.37;99658.97;5014347;28;1315;-56
2023/08/21 04:14:14;;;;;;;;;;;;;;;26.31;37.49;99664.59;5031791;28;824;-57
2023/08/21 04:16:41;;;;;;;;;;;;;;;26.38;37.13;99655.63;5032593;28;1957;-57
2023/08/21 04:19:07;;;;;;;;;;;;;;;26.39;37.17;99672.06;5035712;28;860;-57
2023/08/21 04:21:33;;;;;;;;;;;;;;;26.41;37.33;99665.91;5036094;28;862;-57
2023/08/21 04:24:00;;;;;;;;;;;;;;;26.48;37.25;99674.66;5035667;28;827;-56
2023/08/21 04:26:27;;;;;;;;;;;;;;;26.54;37.25;99674.63;5035567;28;829;-57
2023/08/21 04:28:53;;;;;;;;;;;;;;;26.63;37.70;99674.41;5035700;28;841;-57
2023/08/21 04:31:20;;;;;;;;;;;;;;;26.65;37.64;99671.84;5035587;28;828;-57
2023/08/21 04:33:47;;;;;;;;;;;;;;;26.72;37.39;99670.53;5035439;28;836;-56
2023/08/21 04:36:17;;;;;;;;;;;;;;;26.75;37.58;99677.22;5017676;28;1894;-57
2023/08/21 04:38:43;;;;;;;;;;;;;;;26.78;37.79;99676.19;5035391;28;820;-57
2023/08/21 04:41:10;;;;;;;;;;;;;;;26.85;38.02;99679.25;5035539;28;923;-57
2023/08/21 04:43:37;;;;;;;;;;;;;;;26.88;38.12;99686.75;5035139;28;1419;-58
2023/08/21 04:46:04;;;;;;;;;;;;;;;26.96;37.78;99680.53;5035515;28;820;-57
2023/08/21 04:48:30;;;;;;;;;;;;;;;27.05;38.14;99681.00;5035238;28;805;-57
2023/08/21 04:50:57;;;;;;;;;;;;;;;27.09;38.23;99681.50;5035159;28;832;-57
2023/08/21 04:53:23;;;;;;;;;;;;;;;27.17;37.93;99673.25;5035180;28;861;-57
2023/08/21 04:55:50;;;;;;;;;;;;;;;27.26;37.65;99680.72;5034978;28;919;-57
2023/08/21 04:58:17;;;;;;;;;;;;;;;27.30;37.79;99684.06;5035219;28;1910;-57
2023/08/21 05:00:44;;;;;;;;;;;;;;;27.37;37.53;99685.56;5034997;28;845;-57
2023/08/21 05:03:12;;;;;;;;;;;;;;;27.43;37.60;99692.75;5034988;28;868;-57
2023/08/21 05:05:39;;;;;;;;;;;;;;;27.52;37.84;99676.72;5034975;28;848;-57
2023/08/21 05:08:05;;;;;;;;;;;;;;;27.61;37.65;99687.75;5034879;28;1024;-57
2023/08/21 05:10:32;;;;;;;;;;;;;;;27.67;37.70;99680.00;5035085;28;867;-57
2023/08/21 05:12:58;;;;;;;;;;;;;;;27.76;37.22;99687.44;5035034;28;879;-58
2023/08/21 05:15:25;;;;;;;;;;;;;;;27.84;37.68;99686.34;5034805;28;911;-57
2023/08/21 05:17:51;;;;;;;;;;;;;;;27.94;37.46;99697.44;5034615;28;1949;-57
2023/08/21 05:20:18;;;;;;;;;;;;;;;28.03;37.09;99692.19;5034749;28;812;-57
2023/08/21 05:22:44;;;;;;;;;;;;;;;28.13;36.94;99700.41;5034783;28;797;-57
2023/08/21 05:25:11;;;;;;;;;;;;;;;28.21;36.81;99696.47;5034545;28;843;-57
2023/08/21 05:27:37;;;;;;;;;;;;;;;28.29;37.06;99696.63;5034303;28;899;-57
2023/08/21 05:30:04;;;;;;;;;;;;;;;28.41;36.97;99698.09;5033940;28;888;-57
2023/08/21 05:32:58;;;;;;;;;;;;;;;28.50;36.91;99694.16;5034427;28;804;-57
2023/08/21 05:35:25;;;;;;;;;;;;;;;28.76;36.73;99701.44;5034546;28;871;-57
2023/08/21 05:37:51;;;;;;;;;;;;;;;29.01;36.43;99708.66;5034288;28;1878;-57
2023/08/21 05:40:18;;;;;;;;;;;;;;;29.27;36.07;99705.28;5016591;28;1320;-57
2023/08/21 05:42:45;;;;;;;;;;;;;;;29.50;35.54;99710.72;5034425;28;960;-57
2023/08/21 05:45:11;;;;;;;;;;;;;;;29.76;35.13;99710.13;5034111;28;1284;-58
2023/08/21 05:47:37;;;;;;;;;;;;;;;30.09;34.67;99708.09;5034238;28;850;-57
2023/08/21 05:50:04;;;;;;;;;;;;;;;30.53;33.91;99705.84;5034085;28;856;-57
2023/08/21 05:52:30;;;;;;;;;;;;;;;30.79;33.48;99708.00;5033977;28;825;-57
2023/08/21 05:54:57;;;;;;;;;;;;;;;30.94;33.48;99713.19;5034003;28;832;-56
2023/08/21 05:57:23;;;;;;;;;;;;;;;30.87;33.44;99713.84;5033752;28;1910;-56
2023/08/21 05:59:51;;;;;;;;;;;;;;;30.88;33.65;99703.97;5034069;28;832;-57
2023/08/21 06:02:17;;;;;;;;;;;;;;;30.95;33.45;99703.31;5033826;28;1083;-57
2023/08/21 06:04:44;;;;;;;;;;;;;;;31.09;33.75;99704.09;5033772;28;888;-57
2023/08/21 06:07:11;;;;;;;;;;;;;;;31.17;33.72;99707.81;5033843;28;900;-56
2023/08/21 06:09:37;;;;;;;;;;;;;;;31.10;33.25;99705.63;5033709;28;804;-56
2023/08/21 06:12:04;;;;;;;;;;;;;;;31.12;33.66;99709.47;5033749;28;888;-56
2023/08/21 06:14:31;;;;;;;;;;;;;;;31.23;33.24;99717.03;5033671;28;844;-57
2023/08/21 06:16:59;;;;;;;;;;;;;;;31.29;33.66;99709.13;5033496;28;1945;-57
2023/08/21 06:19:25;;;;;;;;;;;;;;;31.32;33.59;99710.09;5033462;28;832;-57
2023/08/21 06:21:52;;;;;;;;;;;;;;;31.35;33.58;99720.44;5033626;28;904;-57
2023/08/21 06:24:19;;;;;;;;;;;;;;;31.29;33.45;99711.22;5033275;28;809;-56
2023/08/21 06:26:46;;;;;;;;;;;;;;;31.31;33.76;99725.72;5033398;28;872;-56
2023/08/21 06:29:13;;;;;;;;;;;;;;;31.25;33.84;99719.34;5033239;28;935;-57
2023/08/21 06:31:40;;;;;;;;;;;;;;;31.37;33.64;99722.72;5033277;28;861;-57
2023/08/21 06:34:06;;;;;;;;;;;;;;;31.63;33.30;99727.69;5033301;28;855;-57
2023/08/21 06:36:33;;;;;;;;;;;;;;;31.86;32.59;99719.38;5033201;28;1906;-56
2023/08/21 06:39:00;;;;;;;;;;;;;;;31.95;32.91;99724.63;5033023;28;872;-57
2023/08/21 06:41:27;;;;;;;;;;;;;;;32.27;31.47;99715.06;5033014;28;933;-56
2023/08/21 06:43:54;;;;;;;;;;;;;;;32.55;30.98;99726.59;5033086;28;1477;-57
2023/08/21 06:46:20;;;;;;;;;;;;;;;32.95;30.52;99717.00;5033104;28;848;-57
2023/08/21 06:48:47;;;;;;;;;;;;;;;33.72;29.41;99723.19;5015215;28;901;-57
2023/08/21 06:51:13;;;;;;;;;;;;;;;34.04;28.44;99716.97;5033012;28;852;-57
2023/08/21 06:53:40;;;;;;;;;;;;;;;34.48;28.35;99721.81;5032830;28;907;-56
2023/08/21 06:56:06;;;;;;;;;;;;;;;35.00;27.54;99710.91;5032924;28;829;-57
2023/08/21 06:58:33;;;;;;;;;;;;;;;35.74;26.54;99714.72;5032689;28;1977;-57
2023/08/21 07:01:00;;;;;;;;;;;;;;;36.37;25.77;99714.56;5033177;28;872;-57
2023/08/21 07:03:27;;;;;;;;;;;;;;;36.43;25.13;99719.31;5032704;28;874;-57
2023/08/21 07:09:33;;;;;;;;;;;;;;;36.79;24.07;99721.72;5032672;28;742;-57
2023/08/21 07:24:10;;;;;;;;;;;;;;;37.30;23.91;99720.25;5032263;28;797;-57
2023/08/21 07:26:37;;;;;;;;;;;;;;;37.10;23.90;99727.97;5032161;28;900;-57
2023/08/21 07:29:04;;;;;;;;;;;;;;;37.32;24.02;99719.66;5032294;28;900;-57
2023/08/21 07:31:31;;;;;;;;;;;;;;;37.56;23.81;99727.47;5032234;28;817;-58
2023/08/21 07:33:58;;;;;;;;;;;;;;;37.16;24.09;99728.47;5032299;28;903;-57
2023/08/21 07:36:25;;;;;;;;;;;;;;;37.51;24.13;99719.81;5031999;28;1950;-57
2023/08/21 07:38:50;;;;;;;;;;;;;;;37.57;24.13;99731.84;5014392;28;1213;-57
2023/08/21 07:41:17;;;;;;;;;;;;;;;37.59;24.62;99729.16;5032067;28;895;-57
2023/08/21 07:43:44;;;;;;;;;;;;;;;37.71;24.27;99732.28;5031963;28;1288;-57
2023/08/21 07:46:18;;;;;;;;;;;;;;;37.42;23.93;99746.44;5032017;28;864;-58
2023/08/21 07:48:49;;;;;;;;;;;;;;;37.49;24.19;99734.06;5032051;28;849;-57
2023/08/21 07:51:16;;;;;;;;;;;;;;;37.43;24.54;99750.06;5031303;28;911;-57
2023/08/21 07:53:42;;;;;;;;;;;;;;;37.58;25.02;99753.59;5032215;28;1241;-57
2023/08/21 07:56:09;;;;;;;;;;;;;;;37.59;24.45;99748.56;5031981;28;1227;-57
2023/08/21 07:58:35;;;;;;;;;;;;;;;37.36;24.87;99745.94;5032046;28;1910;-58
2023/08/21 08:01:04;;;;;;;;;;;;;;;37.74;24.79;99747.63;5031817;28;813;-57
2023/08/21 08:03:31;;;;;;;;;;;;;;;38.03;24.42;99749.94;5032010;28;907;-58
2023/08/21 08:05:58;;;;;;;;;;;;;;;38.05;24.04;99739.34;5014369;28;870;-58
2023/08/21 08:08:25;;;;;;;;;;;;;;;38.08;24.15;99743.16;5032125;28;867;-58
2023/08/21 08:10:51;;;;;;;;;;;;;;;38.76;23.80;99743.47;5032234;28;895;-57
2023/08/21 08:13:18;;;;;;;;;;;;;;;38.50;23.90;99739.28;5031743;28;1184;-58
2023/08/21 08:15:45;;;;;;;;;;;;;;;38.67;24.14;99742.06;5031686;28;825;-58
2023/08/21 08:18:12;;;;;;;;;;;;;;;38.52;23.71;99731.53;5031589;28;1910;-57
2023/08/21 08:20:39;;;;;;;;;;;;;;;38.12;24.46;99731.94;5031699;28;1468;-57
2023/08/21 08:23:06;;;;;;;;;;;;;;;38.19;23.94;99733.94;5014086;28;1195;-57
2023/08/21 08:25:33;;;;;;;;;;;;;;;38.27;24.23;99720.16;5031864;28;1267;-57
2023/08/21 08:27:59;;;;;;;;;;;;;;;37.99;24.30;99725.16;5031602;28;1227;-57
2023/08/21 08:30:26;;;;;;;;;;;;;;;38.02;24.06;99717.41;5013691;28;912;-57
2023/08/21 08:32:52;;;;;;;;;;;;;;;38.04;24.52;99716.88;5031576;28;1007;-57
2023/08/21 08:35:19;;;;;;;;;;;;;;;38.38;24.07;99727.50;5031489;28;856;-57
2023/08/21 08:37:45;;;;;;;;;;;;;;;38.60;23.61;99722.72;5031401;28;1945;-57
2023/08/21 08:40:12;;;;;;;;;;;;;;;38.75;23.70;99713.81;5031370;28;873;-57
2023/08/21 08:42:38;;;;;;;;;;;;;;;38.67;23.88;99698.75;5031436;28;1016;-58
2023/08/21 08:45:05;;;;;;;;;;;;;;;38.20;23.92;99709.50;5031137;28;1283;-57
2023/08/21 08:47:33;;;;;;;;;;;;;;;38.25;24.43;99707.69;5031394;28;872;-57
2023/08/21 08:50:02;;;;;;;;;;;;;;;38.69;23.84;99709.72;5031180;28;905;-57
2023/08/21 08:52:30;;;;;;;;;;;;;;;39.10;22.50;99701.28;5013666;28;808;-58
2023/08/21 08:57:59;;;;;;;;;;;;;;;40.14;22.36;99690.81;5030443;28;1910;-58
2023/08/21 09:00:26;;;;;;;;;;;;;;;40.19;22.36;99681.78;5031320;28;837;-58
2023/08/21 09:02:54;;;;;;;;;;;;;;;40.15;21.69;99684.38;5032298;28;927;-57
2023/08/21 09:05:21;;;;;;;;;;;;;;;39.78;21.26;99686.78;5035165;28;824;-57
2023/08/21 09:08:01;;;;;;;;;;;;;;;39.18;21.39;99682.41;5034882;28;828;-57
2023/08/21 09:10:28;;;;;;;;;;;;;;;39.30;21.77;99688.31;5034943;28;832;-57
2023/08/21 09:12:58;;;;;;;;;;;;;;;39.23;21.31;99680.59;5034830;28;875;-58
2023/08/21 09:15:27;;;;;;;;;;;;;;;39.00;21.36;99681.03;5016996;28;870;-58
2023/08/21 09:17:54;;;;;;;;;;;;;;;38.76;21.93;99680.69;5034677;28;1894;-58
2023/08/21 09:20:21;;;;;;;;;;;;;;;39.00;22.50;99684.69;5034481;28;947;-58
2023/08/21 09:22:57;;;;;;;;;;;;;;;39.40;20.19;99677.56;5034949;28;828;-58
2023/08/21 09:25:25;;;;;;;;;;;;;;;39.50;20.14;99679.69;5034596;28;844;-58
2023/08/21 09:27:55;;;;;;;;;;;;;;;39.78;19.90;99681.00;5034773;28;833;-57
2023/08/21 09:30:22;;;;;;;;;;;;;;;39.92;19.52;99687.06;5034777;28;847;-58
2023/08/21 09:32:55;;;;;;;;;;;;;;;39.74;20.01;99686.47;5034535;28;864;-58
2023/08/21 09:35:22;;;;;;;;;;;;;;;39.70;19.59;99686.94;5034428;28;931;-58
2023/08/21 09:37:48;;;;;;;;;;;;;;;39.68;19.87;99671.56;5034592;28;1950;-58
2023/08/21 09:40:18;;;;;;;;;;;;;;;39.07;20.60;99685.91;5034325;28;911;-59
2023/08/21 09:42:45;;;;;;;;;;;;;;;38.95;20.40;99679.22;5034251;28;965;-58
2023/08/21 09:45:12;;;;;;;;;;;;;;;39.23;20.05;99669.03;5033995;28;1285;-58
2023/08/21 09:47:40;;;;;;;;;;;;;;;39.36;19.48;99677.22;5034079;28;951;-57
2023/08/21 09:50:06;;;;;;;;;;;;;;;38.97;19.71;99685.16;5034065;28;931;-58
2023/08/21 09:52:35;;;;;;;;;;;;;;;38.77;20.21;99681.44;5034103;28;816;-58
2023/08/21 09:55:03;;;;;;;;;;;;;;;38.43;20.27;99679.50;5034114;28;832;-58
2023/08/21 09:57:29;;;;;;;;;;;;;;;38.35;21.28;99683.28;5033815;28;1910;-58
2023/08/21 09:59:56;;;;;;;;;;;;;;;38.69;20.98;99675.06;5034192;28;864;-58
2023/08/21 10:02:23;;;;;;;;;;;;;;;38.96;20.91;99674.94;5034156;28;922;-58
2023/08/21 10:04:52;;;;;;;;;;;;;;;39.04;20.85;99674.81;5033849;28;816;-58
2023/08/21 10:07:22;;;;;;;;;;;;;;;38.88;20.94;99668.53;5033847;28;852;-58
2023/08/21 10:09:48;;;;;;;;;;;;;;;38.59;21.23;99675.78;5033736;28;848;-58
2023/08/21 10:46:26;;;;;;;;;;;;;;;38.81;21.25;99641.31;4993738;28;688;-64
2023/08/21 10:48:52;;;;;;;;;;;;;;;39.55;20.95;99630.19;4993984;28;890;-64
2023/08/21 10:51:18;;;;;;;;;;;;;;;40.25;20.09;99634.38;4993649;28;836;-65
2023/08/21 10:53:45;;;;;;;;;;;;;;;40.55;19.54;99629.97;4993500;28;848;-64
2023/08/21 10:56:12;;;;;;;;;;;;;;;40.61;19.24;99627.50;4993562;28;856;-64
2023/08/21 10:58:41;;;;;;;;;;;;;;;40.74;18.53;99635.66;4993507;28;1915;-64
2023/08/21 11:01:08;;;;;;;;;;;;;;;40.66;18.78;99626.38;4993451;28;886;-65
2023/08/21 11:03:38;;;;;;;;;;;;;;;40.56;19.24;99634.38;4993446;28;936;-63
2023/08/21 11:06:05;;;;;;;;;;;;;;;40.77;19.36;99622.81;4993237;28;857;-64
2023/08/21 11:08:33;;;;;;;;;;;;;;;40.94;19.56;99621.75;4993428;28;840;-64
2023/08/21 11:11:01;;;;;;;;;;;;;;;40.73;19.81;99613.84;4993419;28;891;-64
2023/08/21 11:13:28;;;;;;;;;;;;;;;41.08;19.40;99613.25;4993271;28;1258;-64
2023/08/21 11:28:06;;;;;;;;;;;;;;;37.44;22.99;99613.28;5012213;28;708;-63
2023/08/21 11:30:33;;;;;;;;;;;;;;;37.26;23.54;99621.22;4994995;28;1216;-64
2023/08/21 11:33:10;;;;;;;;;;;;;;;37.13;24.12;99608.69;5012550;28;872;-64
2023/08/21 11:35:37;;;;;;;;;;;;;;;36.62;23.50;99613.06;5012439;28;1068;-64
2023/08/21 11:38:05;;;;;;;;;;;;;;;36.63;23.72;99611.69;5012452;28;1898;-64
2023/08/21 11:40:39;;;;;;;;;;;;;;;36.83;22.88;99612.66;5012389;28;879;-64
2023/08/21 11:43:07;;;;;;;;;;;;;;;36.96;22.93;99614.44;5012496;28;971;-64
2023/08/21 11:45:34;;;;;;;;;;;;;;;37.03;23.20;99601.28;5026003;28;1277;-64
2023/08/21 11:48:01;;;;;;;;;;;;;;;37.23;23.08;99613.75;5031987;28;859;-64
2023/08/21 11:50:28;;;;;;;;;;;;;;;37.25;23.43;99603.13;5032138;28;871;-63
2023/08/21 11:52:55;;;;;;;;;;;;;;;37.19;23.18;99609.19;5032189;28;832;-68
2023/08/21 11:55:22;;;;;;;;;;;;;;;36.96;22.89;99609.44;5031989;28;903;-64
2023/08/21 11:57:49;;;;;;;;;;;;;;;36.93;23.13;99609.84;5031793;28;1977;-65
2023/08/21 12:00:21;;;;;;;;;;;;;;;36.94;23.03;99611.38;5031900;28;832;-64
2023/08/21 12:02:59;;;;;;;;;;;;;;;37.04;22.98;99603.56;5031801;28;828;-64
2023/08/21 12:05:27;;;;;;;;;;;;;;;37.26;22.41;99609.69;5031805;28;869;-64
2023/08/21 12:07:54;;;;;;;;;;;;;;;37.90;22.51;99604.75;5031759;28;863;-65
2023/08/21 12:10:28;;;;;;;;;;;;;;;39.13;21.06;99596.78;5031718;28;978;-66
2023/08/21 12:12:55;;;;;;;;;;;;;;;39.01;20.92;99601.69;5031864;28;915;-65
2023/08/21 12:15:22;;;;;;;;;;;;;;;40.09;20.13;99591.34;5031741;28;823;-64
2023/08/21 12:17:49;;;;;;;;;;;;;;;41.15;19.48;99592.00;5031627;28;1890;-65
2023/08/21 12:20:15;;;;;;;;;;;;;;;40.58;19.35;99605.53;5031606;28;848;-65
2023/08/21 12:22:42;;;;;;;;;;;;;;;39.87;20.06;99602.13;5031704;28;859;-65
2023/08/21 12:25:10;;;;;;;;;;;;;;;39.33;19.86;99597.53;5031606;28;827;-66
2023/08/21 12:27:36;;;;;;;;;;;;;;;38.62;20.55;99603.75;5031613;28;854;-64
2023/08/21 12:30:03;;;;;;;;;;;;;;;38.24;20.31;99608.06;5031560;28;639;-64
2023/08/21 12:32:30;;;;;;;;;;;;;;;38.07;20.52;99600.25;5031675;28;911;-65
2023/08/21 12:34:57;;;;;;;;;;;;;;;38.12;20.42;99610.78;5031453;28;816;-64
2023/08/21 12:37:23;;;;;;;;;;;;;;;38.56;20.49;99607.72;5032094;28;1949;-63
2023/08/21 12:39:50;;;;;;;;;;;;;;;39.60;20.01;99603.13;5035555;28;823;-64
2023/08/21 12:42:16;;;;;;;;;;;;;;;39.67;19.75;99595.63;5035204;28;1027;-64
2023/08/21 12:44:43;;;;;;;;;;;;;;;39.36;19.93;99598.44;5027087;28;1388;-64
2023/08/21 12:47:09;;;;;;;;;;;;;;;39.55;19.90;99600.53;5015477;28;887;-66
2023/08/21 12:49:36;;;;;;;;;;;;;;;40.10;19.36;99583.44;5015484;28;887;-65
2023/08/21 12:52:05;;;;;;;;;;;;;;;40.92;19.06;99589.00;5015408;28;938;-64
2023/08/21 12:54:32;;;;;;;;;;;;;;;41.89;17.87;99578.50;5015468;28;867;-64
2023/08/21 12:56:59;;;;;;;;;;;;;;;43.22;16.89;99584.25;5015385;28;1914;-64
2023/08/21 12:59:25;;;;;;;;;;;;;;;44.00;16.25;99576.16;5015475;28;836;-65
2023/08/21 13:01:52;;;;;;;;;;;;;;;42.58;16.41;99576.19;4997645;28;1535;-64
2023/08/21 13:04:19;;;;;;;;;;;;;;;42.98;16.55;99568.38;5015248;28;919;-65
2023/08/21 13:06:45;;;;;;;;;;;;;;;42.89;15.79;99578.00;5015301;28;902;-66
2023/08/21 13:09:12;;;;;;;;;;;;;;;43.04;16.22;99574.53;5015264;28;903;-65
2023/08/21 13:11:38;;;;;;;;;;;;;;;43.91;15.63;99574.97;5015015;28;855;-64
2023/08/21 13:14:06;;;;;;;;;;;;;;;44.12;15.17;99579.00;5015265;28;879;-63
2023/08/21 13:16:33;;;;;;;;;;;;;;;44.17;15.33;99577.78;5014973;28;1953;-64
2023/08/21 13:19:00;;;;;;;;;;;;;;;44.19;15.16;99569.16;5014938;28;910;-64
2023/08/21 13:21:26;;;;;;;;;;;;;;;44.34;15.06;99567.75;5014978;28;908;-64
2023/08/21 13:23:52;;;;;;;;;;;;;;;43.53;15.48;99565.66;5014805;28;932;-64
2023/08/21 13:26:19;;;;;;;;;;;;;;;41.67;16.44;99554.69;5014808;28;879;-64
2023/08/21 13:28:46;;;;;;;;;;;;;;;40.37;17.53;99572.34;5014695;28;857;-64
2023/08/21 13:31:11;;;;;;;;;;;;;;;39.45;18.61;99562.22;5014743;28;887;-63
2023/08/21 13:33:48;;;;;;;;;;;;;;;38.89;18.89;99571.84;5014705;28;893;-63
2023/08/21 13:36:16;;;;;;;;;;;;;;;39.01;19.09;99558.34;5014554;28;927;-63
2023/08/21 13:38:43;;;;;;;;;;;;;;;39.12;19.12;99562.75;4997175;28;1488;-65
2023/08/21 13:41:09;;;;;;;;;;;;;;;38.43;19.49;99575.59;5014346;28;1331;-64
2023/08/21 13:43:36;;;;;;;;;;;;;;;37.99;20.01;99557.09;5014751;28;1038;-63
2023/08/21 13:46:03;;;;;;;;;;;;;;;39.10;19.41;99557.56;5031862;28;1300;-64
2023/08/21 13:48:30;;;;;;;;;;;;;;;40.09;18.53;99556.63;5033919;28;1909;-64
2023/08/21 13:50:57;;;;;;;;;;;;;;;39.66;18.88;99564.44;5033323;28;907;-65
2023/08/21 13:53:24;;;;;;;;;;;;;;;39.64;18.69;99558.50;5034120;28;923;-66
2023/08/21 13:55:51;;;;;;;;;;;;;;;39.96;18.74;99557.16;5033960;28;906;-64
2023/08/21 13:58:16;;;;;;;;;;;;;;;40.80;18.23;99554.94;5034051;28;955;-64
2023/08/21 14:00:46;;;;;;;;;;;;;;;41.19;17.36;99550.94;5033914;28;875;-64
2023/08/21 14:12:56;;;;;;;;;;;;;;;40.54;17.83;99550.25;5033392;28;780;-64
2023/08/21 14:15:41;;;;;;;;;;;;;;;39.44;18.66;99552.03;4972870;28;904;-64
2023/08/21 14:18:08;;;;;;;;;;;;;;;39.20;19.00;99543.09;4972836;28;879;-64
2023/08/21 14:20:35;;;;;;;;;;;;;;;38.94;19.11;99560.00;4972749;28;940;-64